sensor_id;sensor_type;location;lat;lon;timestamp;temperature;humidity
15535;DHT22;7869;49.264;8.596;2022-11-12T00:02:19;7.30;99.90
15535;DHT22;7869;49.264;8.596;2022-11-12T00:04:45;7.30;99.90
15535;DHT22;7869;49.264;8.596;2022-11-12T00:07:10;7.20;99.90
15535;DHT22;7869;49.264;8.596;2022-11-12T00:09:36;7.20;99.90
15535;DHT22;7869;49.264;8.596;2022-11-12T00:12:01;7.20;99.90
15535;DHT22;7869;49.264;8.596;2022-11-12T00:14:27;7.20;99.90
15535;DHT22;7869;49.264;8.596;2022-11-12T00:16:52;7.20;99.90
15535;DHT22;7869;49.264;8.596;2022-11-12T00:19:18;7.20;99.90
15535;DHT22;7869;49.264;8.596;2022-11-12T00:21:43;7.20;99.90
15535;DHT22;7869;49.264;8.596;2022-11-12T00:24:09;7.20;99.90
15535;DHT22;7869;49.264;8.596;2022-11-12T00:26:34;7.20;99.90
15535;DHT22;7869;49.264;8.596;2022-11-12T00:29:00;7.10;99.90
15535;DHT22;7869;49.264;8.596;2022-11-12T00:31:25;7.10;99.90
15535;DHT22;7869;49.264;8.596;2022-11-12T00:33:51;7.10;99.90
15535;DHT22;7869;49.264;8.596;2022-11-12T00:36:16;7.00;99.90
15535;DHT22;7869;49.264;8.596;2022-11-12T00:38:42;7.00;99.90
15535;DHT22;7869;49.264;8.596;2022-11-12T00:41:08;7.00;99.90
15535;DHT22;7869;49.264;8.596;2022-11-12T00:43:33;7.00;99.90
15535;DHT22;7869;49.264;8.596;2022-11-12T00:45:59;7.00;99.90
15535;DHT22;7869;49.264;8.596;2022-11-12T00:48:24;7.00;99.90
15535;DHT22;7869;49.264;8.596;2022-11-12T00:50:50;6.90;99.90
15535;DHT22;7869;49.264;8.596;2022-11-12T00:53:15;6.90;99.90
15535;DHT22;7869;49.264;8.596;2022-11-12T00:55:41;6.90;99.90
15535;DHT22;7869;49.264;8.596;2022-11-12T00:58:07;6.90;99.90
15535;DHT22;7869;49.264;8.596;2022-11-12T01:00:32;6.90;99.90
15535;DHT22;7869;49.264;8.596;2022-11-12T01:02:58;6.90;99.90
15535;DHT22;7869;49.264;8.596;2022-11-12T01:05:23;6.90;99.90
15535;DHT22;7869;49.264;8.596;2022-11-12T01:07:49;6.90;99.90
15535;DHT22;7869;49.264;8.596;2022-11-12T01:10:14;6.90;99.90
15535;DHT22;7869;49.264;8.596;2022-11-12T01:12:40;7.00;99.90
15535;DHT22;7869;49.264;8.596;2022-11-12T01:15:06;7.00;99.90
15535;DHT22;7869;49.264;8.596;2022-11-12T01:17:32;7.00;99.90
15535;DHT22;7869;49.264;8.596;2022-11-12T01:19:58;7.00;99.90
15535;DHT22;7869;49.264;8.596;2022-11-12T01:22:23;6.90;99.90
15535;DHT22;7869;49.264;8.596;2022-11-12T01:24:49;6.90;99.90
15535;DHT22;7869;49.264;8.596;2022-11-12T01:27:14;6.90;99.90
15535;DHT22;7869;49.264;8.596;2022-11-12T01:29:40;6.90;99.90
15535;DHT22;7869;49.264;8.596;2022-11-12T01:32:06;6.90;99.90
15535;DHT22;7869;49.264;8.596;2022-11-12T01:34:32;6.80;99.90
15535;DHT22;7869;49.264;8.596;2022-11-12T01:36:58;6.80;99.90
15535;DHT22;7869;49.264;8.596;2022-11-12T01:39:23;6.80;99.90
15535;DHT22;7869;49.264;8.596;2022-11-12T01:41:49;6.80;99.90
15535;DHT22;7869;49.264;8.596;2022-11-12T01:49:38;6.90;99.90
15535;DHT22;7869;49.264;8.596;2022-11-12T01:52:20;6.90;99.90
15535;DHT22;7869;49.264;8.596;2022-11-12T01:54:50;6.90;99.90
15535;DHT22;7869;49.264;8.596;2022-11-12T01:57:22;7.00;99.90
15535;DHT22;7869;49.264;8.596;2022-11-12T01:59:52;7.00;99.90
15535;DHT22;7869;49.264;8.596;2022-11-12T02:02:20;6.90;99.90
15535;DHT22;7869;49.264;8.596;2022-11-12T02:04:46;6.90;99.90
15535;DHT22;7869;49.264;8.596;2022-11-12T02:07:13;7.00;99.90
15535;DHT22;7869;49.264;8.596;2022-11-12T02:09:39;7.00;99.90
15535;DHT22;7869;49.264;8.596;2022-11-12T02:12:05;6.90;99.90
15535;DHT22;7869;49.264;8.596;2022-11-12T02:14:31;6.90;99.90
15535;DHT22;7869;49.264;8.596;2022-11-12T02:16:57;6.90;99.90
15535;DHT22;7869;49.264;8.596;2022-11-12T02:19:23;6.90;99.90
15535;DHT22;7869;49.264;8.596;2022-11-12T02:21:50;6.90;99.90
15535;DHT22;7869;49.264;8.596;2022-11-12T02:26:44;6.90;99.90
15535;DHT22;7869;49.264;8.596;2022-11-12T02:29:10;6.90;99.90
15535;DHT22;7869;49.264;8.596;2022-11-12T02:31:36;6.90;99.90
15535;DHT22;7869;49.264;8.596;2022-11-12T02:34:02;6.90;99.90
15535;DHT22;7869;49.264;8.596;2022-11-12T02:36:28;6.90;99.90
15535;DHT22;7869;49.264;8.596;2022-11-12T02:38:54;6.90;99.90
15535;DHT22;7869;49.264;8.596;2022-11-12T02:41:20;6.90;99.90
15535;DHT22;7869;49.264;8.596;2022-11-12T02:43:46;6.90;99.90
15535;DHT22;7869;49.264;8.596;2022-11-12T02:46:11;6.90;99.90
15535;DHT22;7869;49.264;8.596;2022-11-12T02:48:37;6.80;99.90
15535;DHT22;7869;49.264;8.596;2022-11-12T02:51:03;6.90;99.90
15535;DHT22;7869;49.264;8.596;2022-11-12T02:53:29;6.90;99.90
15535;DHT22;7869;49.264;8.596;2022-11-12T02:55:57;6.90;99.90
15535;DHT22;7869;49.264;8.596;2022-11-12T02:58:22;6.90;99.90
15535;DHT22;7869;49.264;8.596;2022-11-12T03:00:48;6.90;99.90
15535;DHT22;7869;49.264;8.596;2022-11-12T03:03:14;6.90;99.90
15535;DHT22;7869;49.264;8.596;2022-11-12T03:05:39;6.90;99.90
15535;DHT22;7869;49.264;8.596;2022-11-12T03:08:06;6.90;99.90
15535;DHT22;7869;49.264;8.596;2022-11-12T03:10:32;6.90;99.90
15535;DHT22;7869;49.264;8.596;2022-11-12T03:13:00;6.90;99.90
15535;DHT22;7869;49.264;8.596;2022-11-12T03:15:26;6.90;99.90
15535;DHT22;7869;49.264;8.596;2022-11-12T03:17:52;6.90;99.90
15535;DHT22;7869;49.264;8.596;2022-11-12T03:20:18;6.90;99.90
15535;DHT22;7869;49.264;8.596;2022-11-12T03:23:01;6.90;99.90
15535;DHT22;7869;49.264;8.596;2022-11-12T03:25:27;6.90;99.90
15535;DHT22;7869;49.264;8.596;2022-11-12T03:28:01;6.90;99.90
15535;DHT22;7869;49.264;8.596;2022-11-12T03:30:29;6.90;99.90
15535;DHT22;7869;49.264;8.596;2022-11-12T03:32:55;6.90;99.90
15535;DHT22;7869;49.264;8.596;2022-11-12T03:35:21;6.90;99.90
15535;DHT22;7869;49.264;8.596;2022-11-12T03:37:47;6.90;99.90
15535;DHT22;7869;49.264;8.596;2022-11-12T03:40:12;6.90;99.90
15535;DHT22;7869;49.264;8.596;2022-11-12T03:42:43;6.90;99.90
15535;DHT22;7869;49.264;8.596;2022-11-12T03:45:08;6.80;99.90
15535;DHT22;7869;49.264;8.596;2022-11-12T03:47:34;6.80;99.90
15535;DHT22;7869;49.264;8.596;2022-11-12T03:49:59;6.80;99.90
15535;DHT22;7869;49.264;8.596;2022-11-12T03:52:26;6.80;99.90
15535;DHT22;7869;49.264;8.596;2022-11-12T03:54:51;6.80;99.90
15535;DHT22;7869;49.264;8.596;2022-11-12T03:57:16;6.80;99.90
15535;DHT22;7869;49.264;8.596;2022-11-12T03:59:42;6.80;99.90
15535;DHT22;7869;49.264;8.596;2022-11-12T04:02:07;6.70;99.90
15535;DHT22;7869;49.264;8.596;2022-11-12T04:04:38;6.70;99.90
15535;DHT22;7869;49.264;8.596;2022-11-12T04:07:23;6.70;99.90
15535;DHT22;7869;49.264;8.596;2022-11-12T04:10:07;6.70;99.90
15535;DHT22;7869;49.264;8.596;2022-11-12T04:12:33;6.60;99.90
15535;DHT22;7869;49.264;8.596;2022-11-12T04:15:17;6.60;99.90
15535;DHT22;7869;49.264;8.596;2022-11-12T04:17:43;6.60;99.90
15535;DHT22;7869;49.264;8.596;2022-11-12T04:20:27;6.60;99.90
15535;DHT22;7869;49.264;8.596;2022-11-12T04:23:11;6.60;99.90
15535;DHT22;7869;49.264;8.596;2022-11-12T04:25:36;6.60;99.90
15535;DHT22;7869;49.264;8.596;2022-11-12T04:28:21;6.60;99.90
15535;DHT22;7869;49.264;8.596;2022-11-12T04:30:47;6.60;99.90
15535;DHT22;7869;49.264;8.596;2022-11-12T04:33:12;6.60;99.90
15535;DHT22;7869;49.264;8.596;2022-11-12T04:35:38;6.60;99.90
15535;DHT22;7869;49.264;8.596;2022-11-12T04:38:03;6.60;99.90
15535;DHT22;7869;49.264;8.596;2022-11-12T04:40:30;6.60;99.90
15535;DHT22;7869;49.264;8.596;2022-11-12T04:43:16;6.50;99.90
15535;DHT22;7869;49.264;8.596;2022-11-12T04:46:02;6.50;99.90
15535;DHT22;7869;49.264;8.596;2022-11-12T04:48:28;6.40;99.90
15535;DHT22;7869;49.264;8.596;2022-11-12T04:51:02;6.40;99.90
15535;DHT22;7869;49.264;8.596;2022-11-12T04:53:48;6.40;99.90
15535;DHT22;7869;49.264;8.596;2022-11-12T04:56:14;6.30;99.90
15535;DHT22;7869;49.264;8.596;2022-11-12T04:58:39;6.30;99.90
15535;DHT22;7869;49.264;8.596;2022-11-12T05:01:05;6.20;99.90
15535;DHT22;7869;49.264;8.596;2022-11-12T05:03:30;6.20;99.90
15535;DHT22;7869;49.264;8.596;2022-11-12T05:06:04;6.20;99.90
15535;DHT22;7869;49.264;8.596;2022-11-12T05:08:49;6.20;99.90
15535;DHT22;7869;49.264;8.596;2022-11-12T05:11:15;6.20;99.90
15535;DHT22;7869;49.264;8.596;2022-11-12T05:13:40;6.30;99.90
15535;DHT22;7869;49.264;8.596;2022-11-12T05:16:06;6.20;99.90
15535;DHT22;7869;49.264;8.596;2022-11-12T05:18:31;6.20;99.90
15535;DHT22;7869;49.264;8.596;2022-11-12T05:20:57;6.20;99.90
15535;DHT22;7869;49.264;8.596;2022-11-12T05:23:42;6.10;99.90
15535;DHT22;7869;49.264;8.596;2022-11-12T05:26:08;6.20;99.90
15535;DHT22;7869;49.264;8.596;2022-11-12T05:28:33;6.10;99.90
15535;DHT22;7869;49.264;8.596;2022-11-12T05:30:59;6.10;99.90
15535;DHT22;7869;49.264;8.596;2022-11-12T05:33:24;6.00;99.90
15535;DHT22;7869;49.264;8.596;2022-11-12T05:35:50;5.90;99.90
15535;DHT22;7869;49.264;8.596;2022-11-12T05:38:16;6.00;99.90
15535;DHT22;7869;49.264;8.596;2022-11-12T05:40:44;6.00;99.90
15535;DHT22;7869;49.264;8.596;2022-11-12T05:43:09;6.00;99.90
15535;DHT22;7869;49.264;8.596;2022-11-12T05:45:35;6.00;99.90
15535;DHT22;7869;49.264;8.596;2022-11-12T05:48:00;6.00;99.90
15535;DHT22;7869;49.264;8.596;2022-11-12T05:50:26;6.00;99.90
15535;DHT22;7869;49.264;8.596;2022-11-12T05:52:51;5.90;99.90
15535;DHT22;7869;49.264;8.596;2022-11-12T05:55:17;5.90;99.90
15535;DHT22;7869;49.264;8.596;2022-11-12T05:57:42;5.90;99.90
15535;DHT22;7869;49.264;8.596;2022-11-12T06:00:08;5.90;99.90
15535;DHT22;7869;49.264;8.596;2022-11-12T06:02:34;5.90;99.90
15535;DHT22;7869;49.264;8.596;2022-11-12T06:05:00;5.80;99.90
15535;DHT22;7869;49.264;8.596;2022-11-12T06:07:25;5.80;99.90
15535;DHT22;7869;49.264;8.596;2022-11-12T06:09:50;5.70;99.90
15535;DHT22;7869;49.264;8.596;2022-11-12T06:12:16;5.70;99.90
15535;DHT22;7869;49.264;8.596;2022-11-12T06:14:41;5.70;99.90
15535;DHT22;7869;49.264;8.596;2022-11-12T06:17:07;5.70;99.90
15535;DHT22;7869;49.264;8.596;2022-11-12T06:19:33;5.70;99.90
15535;DHT22;7869;49.264;8.596;2022-11-12T06:21:58;5.70;99.90
15535;DHT22;7869;49.264;8.596;2022-11-12T06:24:24;5.60;99.90
15535;DHT22;7869;49.264;8.596;2022-11-12T06:26:50;5.60;99.90
15535;DHT22;7869;49.264;8.596;2022-11-12T06:29:15;5.60;99.90
15535;DHT22;7869;49.264;8.596;2022-11-12T06:31:41;5.60;99.90
15535;DHT22;7869;49.264;8.596;2022-11-12T06:34:06;5.60;99.90
15535;DHT22;7869;49.264;8.596;2022-11-12T06:36:32;5.60;99.90
15535;DHT22;7869;49.264;8.596;2022-11-12T06:38:57;5.60;99.90
15535;DHT22;7869;49.264;8.596;2022-11-12T06:41:23;5.60;99.90
15535;DHT22;7869;49.264;8.596;2022-11-12T06:43:49;5.50;99.90
15535;DHT22;7869;49.264;8.596;2022-11-12T06:46:15;5.50;99.90
15535;DHT22;7869;49.264;8.596;2022-11-12T06:48:41;5.40;99.90
15535;DHT22;7869;49.264;8.596;2022-11-12T06:51:16;5.40;99.90
15535;DHT22;7869;49.264;8.596;2022-11-12T06:53:41;5.40;99.90
15535;DHT22;7869;49.264;8.596;2022-11-12T06:56:07;5.40;99.90
15535;DHT22;7869;49.264;8.596;2022-11-12T06:58:33;5.40;99.90
15535;DHT22;7869;49.264;8.596;2022-11-12T07:01:13;5.40;99.90
15535;DHT22;7869;49.264;8.596;2022-11-12T07:03:41;5.40;99.90
15535;DHT22;7869;49.264;8.596;2022-11-12T07:06:12;5.30;99.90
15535;DHT22;7869;49.264;8.596;2022-11-12T07:08:39;5.30;99.90
15535;DHT22;7869;49.264;8.596;2022-11-12T07:11:05;5.30;99.90
15535;DHT22;7869;49.264;8.596;2022-11-12T07:13:33;5.30;99.90
15535;DHT22;7869;49.264;8.596;2022-11-12T07:15:59;5.40;99.90
15535;DHT22;7869;49.264;8.596;2022-11-12T07:18:26;5.30;99.90
15535;DHT22;7869;49.264;8.596;2022-11-12T07:20:56;5.30;99.90
15535;DHT22;7869;49.264;8.596;2022-11-12T07:23:22;5.30;99.90
15535;DHT22;7869;49.264;8.596;2022-11-12T07:25:59;5.30;99.90
15535;DHT22;7869;49.264;8.596;2022-11-12T07:28:26;5.30;99.90
15535;DHT22;7869;49.264;8.596;2022-11-12T07:31:05;5.30;99.90
15535;DHT22;7869;49.264;8.596;2022-11-12T07:33:32;5.30;99.90
15535;DHT22;7869;49.264;8.596;2022-11-12T07:36:03;5.30;99.90
15535;DHT22;7869;49.264;8.596;2022-11-12T07:38:30;5.40;99.90
15535;DHT22;7869;49.264;8.596;2022-11-12T07:43:32;5.40;99.90
15535;DHT22;7869;49.264;8.596;2022-11-12T07:46:04;5.40;99.90
15535;DHT22;7869;49.264;8.596;2022-11-12T07:48:31;5.40;99.90
15535;DHT22;7869;49.264;8.596;2022-11-12T07:51:04;5.40;99.90
15535;DHT22;7869;49.264;8.596;2022-11-12T07:53:31;5.40;99.90
15535;DHT22;7869;49.264;8.596;2022-11-12T07:55:59;5.30;99.90
15535;DHT22;7869;49.264;8.596;2022-11-12T07:58:25;5.40;99.90
15535;DHT22;7869;49.264;8.596;2022-11-12T08:00:53;5.40;99.90
15535;DHT22;7869;49.264;8.596;2022-11-12T08:03:18;5.40;99.90
15535;DHT22;7869;49.264;8.596;2022-11-12T08:05:44;5.40;99.90
15535;DHT22;7869;49.264;8.596;2022-11-12T08:08:10;5.40;99.90
15535;DHT22;7869;49.264;8.596;2022-11-12T08:10:36;5.50;99.90
15535;DHT22;7869;49.264;8.596;2022-11-12T08:13:02;5.50;99.90
15535;DHT22;7869;49.264;8.596;2022-11-12T08:15:28;5.60;99.90
15535;DHT22;7869;49.264;8.596;2022-11-12T08:17:53;5.70;99.90
15535;DHT22;7869;49.264;8.596;2022-11-12T08:20:19;5.70;99.90
15535;DHT22;7869;49.264;8.596;2022-11-12T08:22:44;5.80;99.90
15535;DHT22;7869;49.264;8.596;2022-11-12T08:25:10;5.90;99.90
15535;DHT22;7869;49.264;8.596;2022-11-12T08:27:35;5.90;99.90
15535;DHT22;7869;49.264;8.596;2022-11-12T08:30:02;6.10;99.90
15535;DHT22;7869;49.264;8.596;2022-11-12T08:32:27;6.20;99.90
15535;DHT22;7869;49.264;8.596;2022-11-12T08:34:53;6.40;99.90
15535;DHT22;7869;49.264;8.596;2022-11-12T08:37:19;6.50;99.90
15535;DHT22;7869;49.264;8.596;2022-11-12T08:39:44;6.60;99.90
15535;DHT22;7869;49.264;8.596;2022-11-12T08:42:10;6.70;99.90
15535;DHT22;7869;49.264;8.596;2022-11-12T08:44:35;6.80;99.90
15535;DHT22;7869;49.264;8.596;2022-11-12T08:47:01;6.90;99.90
15535;DHT22;7869;49.264;8.596;2022-11-12T08:49:27;6.90;99.90
15535;DHT22;7869;49.264;8.596;2022-11-12T08:51:53;7.00;99.90
15535;DHT22;7869;49.264;8.596;2022-11-12T08:54:19;7.00;99.90
15535;DHT22;7869;49.264;8.596;2022-11-12T08:56:44;7.00;99.90
15535;DHT22;7869;49.264;8.596;2022-11-12T08:59:10;7.00;99.90
15535;DHT22;7869;49.264;8.596;2022-11-12T09:01:35;6.90;99.90
15535;DHT22;7869;49.264;8.596;2022-11-12T09:04:01;7.00;99.90
15535;DHT22;7869;49.264;8.596;2022-11-12T09:06:26;7.10;99.90
15535;DHT22;7869;49.264;8.596;2022-11-12T09:08:52;7.30;99.90
15535;DHT22;7869;49.264;8.596;2022-11-12T09:11:17;7.40;99.90
15535;DHT22;7869;49.264;8.596;2022-11-12T09:13:43;7.60;99.90
15535;DHT22;7869;49.264;8.596;2022-11-12T09:16:09;7.80;99.90
15535;DHT22;7869;49.264;8.596;2022-11-12T09:18:35;7.90;99.90
15535;DHT22;7869;49.264;8.596;2022-11-12T09:21:04;8.00;99.90
15535;DHT22;7869;49.264;8.596;2022-11-12T09:23:29;8.10;99.90
15535;DHT22;7869;49.264;8.596;2022-11-12T09:25:55;8.10;99.90
15535;DHT22;7869;49.264;8.596;2022-11-12T09:28:22;7.90;99.90
15535;DHT22;7869;49.264;8.596;2022-11-12T09:30:49;7.50;99.90
15535;DHT22;7869;49.264;8.596;2022-11-12T09:33:23;7.30;99.90
15535;DHT22;7869;49.264;8.596;2022-11-12T09:35:50;7.20;99.90
15535;DHT22;7869;49.264;8.596;2022-11-12T09:38:17;7.40;99.90
15535;DHT22;7869;49.264;8.596;2022-11-12T09:43:19;7.30;99.90
15535;DHT22;7869;49.264;8.596;2022-11-12T09:45:48;7.10;99.90
15535;DHT22;7869;49.264;8.596;2022-11-12T09:48:19;7.10;99.90
15535;DHT22;7869;49.264;8.596;2022-11-12T09:50:59;7.20;99.90
15535;DHT22;7869;49.264;8.596;2022-11-12T09:53:46;7.40;99.90
15535;DHT22;7869;49.264;8.596;2022-11-12T09:56:15;7.40;99.90
15535;DHT22;7869;49.264;8.596;2022-11-12T09:58:42;7.50;99.90
15535;DHT22;7869;49.264;8.596;2022-11-12T10:01:21;7.70;99.90
15535;DHT22;7869;49.264;8.596;2022-11-12T10:03:51;7.80;99.90
15535;DHT22;7869;49.264;8.596;2022-11-12T10:06:23;7.90;99.90
15535;DHT22;7869;49.264;8.596;2022-11-12T10:09:04;8.00;99.90
15535;DHT22;7869;49.264;8.596;2022-11-12T10:18:01;7.90;99.90
15535;DHT22;7869;49.264;8.596;2022-11-12T10:20:36;7.90;99.90
15535;DHT22;7869;49.264;8.596;2022-11-12T10:23:15;8.00;99.90
15535;DHT22;7869;49.264;8.596;2022-11-12T10:25:43;7.90;99.90
15535;DHT22;7869;49.264;8.596;2022-11-12T10:28:33;8.10;99.90
15535;DHT22;7869;49.264;8.596;2022-11-12T10:31:10;8.20;99.90
15535;DHT22;7869;49.264;8.596;2022-11-12T10:33:36;8.30;99.90
15535;DHT22;7869;49.264;8.596;2022-11-12T10:36:15;8.10;99.90
15535;DHT22;7869;49.264;8.596;2022-11-12T10:38:42;7.90;99.90
15535;DHT22;7869;49.264;8.596;2022-11-12T10:43:57;8.10;99.90
15535;DHT22;7869;49.264;8.596;2022-11-12T10:46:28;8.10;99.90
15535;DHT22;7869;49.264;8.596;2022-11-12T10:48:58;8.10;99.90
15535;DHT22;7869;49.264;8.596;2022-11-12T10:51:28;8.30;99.90
15535;DHT22;7869;49.264;8.596;2022-11-12T10:53:54;8.10;99.90
15535;DHT22;7869;49.264;8.596;2022-11-12T10:56:27;8.10;99.90
15535;DHT22;7869;49.264;8.596;2022-11-12T11:01:39;7.90;99.90
15535;DHT22;7869;49.264;8.596;2022-11-12T11:04:14;7.90;99.90
15535;DHT22;7869;49.264;8.596;2022-11-12T11:06:40;7.80;99.90
15535;DHT22;7869;49.264;8.596;2022-11-12T11:11:50;7.90;99.90
15535;DHT22;7869;49.264;8.596;2022-11-12T11:16:57;7.90;99.90
15535;DHT22;7869;49.264;8.596;2022-11-12T11:19:39;7.80;99.90
15535;DHT22;7869;49.264;8.596;2022-11-12T11:25:03;7.90;99.90
15535;DHT22;7869;49.264;8.596;2022-11-12T11:30:21;8.10;99.90
15535;DHT22;7869;49.264;8.596;2022-11-12T11:38:39;8.10;99.90
15535;DHT22;7869;49.264;8.596;2022-11-12T11:44:18;8.40;99.90
15535;DHT22;7869;49.264;8.596;2022-11-12T11:49:37;8.60;99.90
15535;DHT22;7869;49.264;8.596;2022-11-12T11:55:36;8.60;99.90
15535;DHT22;7869;49.264;8.596;2022-11-12T12:06:25;8.40;99.90
15535;DHT22;7869;49.264;8.596;2022-11-12T12:09:06;8.50;99.90
15535;DHT22;7869;49.264;8.596;2022-11-12T12:12:03;8.30;99.90
15535;DHT22;7869;49.264;8.596;2022-11-12T12:14:53;8.10;99.90
15535;DHT22;7869;49.264;8.596;2022-11-12T12:20:26;8.10;99.90
15535;DHT22;7869;49.264;8.596;2022-11-12T12:23:24;8.20;99.90
15535;DHT22;7869;49.264;8.596;2022-11-12T12:25:51;8.20;99.90
15535;DHT22;7869;49.264;8.596;2022-11-12T12:28:34;8.20;99.90
15535;DHT22;7869;49.264;8.596;2022-11-12T12:31:06;8.20;99.90
15535;DHT22;7869;49.264;8.596;2022-11-12T12:33:38;8.20;99.90
15535;DHT22;7869;49.264;8.596;2022-11-12T12:36:16;8.20;99.90
15535;DHT22;7869;49.264;8.596;2022-11-12T12:38:52;8.20;99.90
15535;DHT22;7869;49.264;8.596;2022-11-12T12:41:38;8.30;99.90
15535;DHT22;7869;49.264;8.596;2022-11-12T12:44:09;8.20;99.90
15535;DHT22;7869;49.264;8.596;2022-11-12T12:46:56;8.20;99.90
15535;DHT22;7869;49.264;8.596;2022-11-12T12:49:29;8.20;99.90
15535;DHT22;7869;49.264;8.596;2022-11-12T12:51:55;8.20;99.90
15535;DHT22;7869;49.264;8.596;2022-11-12T12:57:00;8.10;99.90
15535;DHT22;7869;49.264;8.596;2022-11-12T12:59:25;8.10;99.90
15535;DHT22;7869;49.264;8.596;2022-11-12T13:01:57;8.10;99.90
15535;DHT22;7869;49.264;8.596;2022-11-12T13:04:54;8.00;99.90
15535;DHT22;7869;49.264;8.596;2022-11-12T13:07:42;7.90;99.90
15535;DHT22;7869;49.264;8.596;2022-11-12T13:15:45;8.20;99.90
15535;DHT22;7869;49.264;8.596;2022-11-12T13:23:53;8.40;99.90
15535;DHT22;7869;49.264;8.596;2022-11-12T13:26:52;8.30;99.90
15535;DHT22;7869;49.264;8.596;2022-11-12T13:40:37;7.90;99.90
15535;DHT22;7869;49.264;8.596;2022-11-12T13:48:55;7.90;99.90
15535;DHT22;7869;49.264;8.596;2022-11-12T13:51:36;7.80;99.90
15535;DHT22;7869;49.264;8.596;2022-11-12T13:54:31;7.90;99.90
15535;DHT22;7869;49.264;8.596;2022-11-12T13:57:14;7.90;99.90
15535;DHT22;7869;49.264;8.596;2022-11-12T13:59:40;7.80;99.90
15535;DHT22;7869;49.264;8.596;2022-11-12T14:02:32;7.80;99.90
15535;DHT22;7869;49.264;8.596;2022-11-12T14:05:00;7.90;99.90
15535;DHT22;7869;49.264;8.596;2022-11-12T14:13:01;7.70;99.90
15535;DHT22;7869;49.264;8.596;2022-11-12T14:18:29;7.70;99.90
15535;DHT22;7869;49.264;8.596;2022-11-12T14:20:57;7.70;99.90
15535;DHT22;7869;49.264;8.596;2022-11-12T14:23:23;7.70;99.90
15535;DHT22;7869;49.264;8.596;2022-11-12T14:25:51;7.60;99.90
15535;DHT22;7869;49.264;8.596;2022-11-12T14:28:30;7.50;99.90
15535;DHT22;7869;49.264;8.596;2022-11-12T14:30:58;7.50;99.90
15535;DHT22;7869;49.264;8.596;2022-11-12T14:33:25;7.50;99.90
15535;DHT22;7869;49.264;8.596;2022-11-12T14:35:52;7.60;99.90
15535;DHT22;7869;49.264;8.596;2022-11-12T14:41:09;7.60;99.90
15535;DHT22;7869;49.264;8.596;2022-11-12T14:43:40;7.70;99.90
15535;DHT22;7869;49.264;8.596;2022-11-12T14:46:17;7.70;99.90
15535;DHT22;7869;49.264;8.596;2022-11-12T14:48:47;7.60;99.90
15535;DHT22;7869;49.264;8.596;2022-11-12T14:51:15;7.60;99.90
15535;DHT22;7869;49.264;8.596;2022-11-12T14:53:44;7.50;99.90
15535;DHT22;7869;49.264;8.596;2022-11-12T14:56:41;7.40;99.90
15535;DHT22;7869;49.264;8.596;2022-11-12T14:59:12;7.40;99.90
15535;DHT22;7869;49.264;8.596;2022-11-12T15:01:39;7.50;99.90
15535;DHT22;7869;49.264;8.596;2022-11-12T15:06:39;7.40;99.90
15535;DHT22;7869;49.264;8.596;2022-11-12T15:09:05;7.40;99.90
15535;DHT22;7869;49.264;8.596;2022-11-12T15:14:02;7.30;99.90
15535;DHT22;7869;49.264;8.596;2022-11-12T15:16:35;7.20;99.90
15535;DHT22;7869;49.264;8.596;2022-11-12T15:19:18;7.20;99.90
15535;DHT22;7869;49.264;8.596;2022-11-12T15:22:03;7.20;99.90
15535;DHT22;7869;49.264;8.596;2022-11-12T15:24:33;7.20;99.90
15535;DHT22;7869;49.264;8.596;2022-11-12T15:27:45;7.20;99.90
15535;DHT22;7869;49.264;8.596;2022-11-12T15:29:46;7.20;99.90
15535;DHT22;7869;49.264;8.596;2022-11-12T15:39:45;7.20;99.90
15535;DHT22;7869;49.264;8.596;2022-11-12T15:45:17;7.20;99.90
15535;DHT22;7869;49.264;8.596;2022-11-12T15:47:43;7.00;99.90
15535;DHT22;7869;49.264;8.596;2022-11-12T15:52:37;7.00;99.90
15535;DHT22;7869;49.264;8.596;2022-11-12T15:55:03;7.00;99.90
15535;DHT22;7869;49.264;8.596;2022-11-12T15:57:30;7.00;99.90
15535;DHT22;7869;49.264;8.596;2022-11-12T16:00:04;7.00;99.90
15535;DHT22;7869;49.264;8.596;2022-11-12T16:02:30;7.00;99.90
15535;DHT22;7869;49.264;8.596;2022-11-12T16:04:56;7.00;99.90
15535;DHT22;7869;49.264;8.596;2022-11-12T16:07:22;7.00;99.90
15535;DHT22;7869;49.264;8.596;2022-11-12T16:09:47;7.00;99.90
15535;DHT22;7869;49.264;8.596;2022-11-12T16:12:14;7.00;99.90
15535;DHT22;7869;49.264;8.596;2022-11-12T16:14:40;6.90;99.90
15535;DHT22;7869;49.264;8.596;2022-11-12T16:17:10;7.00;99.90
15535;DHT22;7869;49.264;8.596;2022-11-12T16:19:37;7.00;99.90
15535;DHT22;7869;49.264;8.596;2022-11-12T16:22:03;7.10;99.90
15535;DHT22;7869;49.264;8.596;2022-11-12T16:24:29;7.10;99.90
15535;DHT22;7869;49.264;8.596;2022-11-12T16:26:54;7.10;99.90
15535;DHT22;7869;49.264;8.596;2022-11-12T16:29:20;7.10;99.90
15535;DHT22;7869;49.264;8.596;2022-11-12T16:31:45;7.00;99.90
15535;DHT22;7869;49.264;8.596;2022-11-12T16:34:11;6.90;99.90
15535;DHT22;7869;49.264;8.596;2022-11-12T16:36:37;6.90;99.90
15535;DHT22;7869;49.264;8.596;2022-11-12T16:39:03;6.80;99.90
15535;DHT22;7869;49.264;8.596;2022-11-12T16:41:29;6.80;99.90
15535;DHT22;7869;49.264;8.596;2022-11-12T16:43:54;6.80;99.90
15535;DHT22;7869;49.264;8.596;2022-11-12T16:46:25;6.80;99.90
15535;DHT22;7869;49.264;8.596;2022-11-12T16:48:52;6.80;99.90
15535;DHT22;7869;49.264;8.596;2022-11-12T16:51:19;6.80;99.90
15535;DHT22;7869;49.264;8.596;2022-11-12T16:53:45;6.70;99.90
15535;DHT22;7869;49.264;8.596;2022-11-12T16:56:21;6.70;99.90
15535;DHT22;7869;49.264;8.596;2022-11-12T16:58:48;6.70;99.90
15535;DHT22;7869;49.264;8.596;2022-11-12T17:01:22;6.60;99.90
15535;DHT22;7869;49.264;8.596;2022-11-12T17:03:50;6.60;99.90
15535;DHT22;7869;49.264;8.596;2022-11-12T17:06:15;6.70;99.90
15535;DHT22;7869;49.264;8.596;2022-11-12T17:08:41;6.70;99.90
15535;DHT22;7869;49.264;8.596;2022-11-12T17:11:07;6.70;99.90
15535;DHT22;7869;49.264;8.596;2022-11-12T17:13:37;6.70;99.90
15535;DHT22;7869;49.264;8.596;2022-11-12T17:16:04;6.70;99.90
15535;DHT22;7869;49.264;8.596;2022-11-12T17:18:30;6.60;99.90
15535;DHT22;7869;49.264;8.596;2022-11-12T17:20:56;6.60;99.90
15535;DHT22;7869;49.264;8.596;2022-11-12T17:23:21;6.60;99.90
15535;DHT22;7869;49.264;8.596;2022-11-12T17:25:47;6.70;99.90
15535;DHT22;7869;49.264;8.596;2022-11-12T17:28:12;6.70;99.90
15535;DHT22;7869;49.264;8.596;2022-11-12T17:30:38;6.50;99.90
15535;DHT22;7869;49.264;8.596;2022-11-12T17:33:04;6.50;99.90
15535;DHT22;7869;49.264;8.596;2022-11-12T17:35:32;6.50;99.90
15535;DHT22;7869;49.264;8.596;2022-11-12T17:37:58;6.50;99.90
15535;DHT22;7869;49.264;8.596;2022-11-12T17:40:24;6.50;99.90
15535;DHT22;7869;49.264;8.596;2022-11-12T17:42:49;6.60;99.90
15535;DHT22;7869;49.264;8.596;2022-11-12T17:45:15;6.60;99.90
15535;DHT22;7869;49.264;8.596;2022-11-12T17:47:40;6.50;99.90
15535;DHT22;7869;49.264;8.596;2022-11-12T17:50:06;6.60;99.90
15535;DHT22;7869;49.264;8.596;2022-11-12T17:52:32;6.60;99.90
15535;DHT22;7869;49.264;8.596;2022-11-12T17:54:57;6.60;99.90
15535;DHT22;7869;49.264;8.596;2022-11-12T17:57:23;6.60;99.90
15535;DHT22;7869;49.264;8.596;2022-11-12T17:59:48;6.60;99.90
15535;DHT22;7869;49.264;8.596;2022-11-12T18:02:14;6.50;99.90
15535;DHT22;7869;49.264;8.596;2022-11-12T18:04:40;6.50;99.90
15535;DHT22;7869;49.264;8.596;2022-11-12T18:07:05;6.60;99.90
15535;DHT22;7869;49.264;8.596;2022-11-12T18:09:31;6.40;99.90
15535;DHT22;7869;49.264;8.596;2022-11-12T18:11:56;6.40;99.90
15535;DHT22;7869;49.264;8.596;2022-11-12T18:14:23;6.30;99.90
15535;DHT22;7869;49.264;8.596;2022-11-12T18:16:50;6.30;99.90